Time;durP1;ratioP1;P1;durP2;ratioP2;P2;SDS_P1;SDS_P2;PMS_P1;PMS_P2;Temp;Humidity;BMP_temperature;BMP_pressure;BME280_temperature;BME280_humidity;BME280_pressure;Samples;Min_cycle;Max_cycle;Signal;HPM_P1;HPM_P2
2023/02/14 00:00:09;;;;;;;13.75;7.65;;;4.60;99.90;;;;;;5009117;28;20030;-82
2023/02/14 00:02:35;;;;;;;12.52;7.32;;;4.60;99.90;;;;;;5029316;28;20033;-82
2023/02/14 00:05:00;;;;;;;11.90;7.80;;;4.40;99.90;;;;;;5017465;28;20022;-83
2023/02/14 00:07:26;;;;;;;15.18;8.55;;;4.40;99.90;;;;;;5014956;28;20029;-83
2023/02/14 00:09:51;;;;;;;12.15;7.97;;;4.20;99.90;;;;;;5011597;28;20038;-82
2023/02/14 00:12:17;;;;;;;13.00;6.95;;;3.90;99.90;;;;;;5012512;28;20029;-82
2023/02/14 00:17:27;;;;;;;12.55;7.72;;;3.90;99.90;;;;;;5004518;28;20035;-81
2023/02/14 00:19:52;;;;;;;12.80;7.10;;;4.00;99.90;;;;;;4995567;28;20038;-82
2023/02/14 00:22:18;;;;;;;13.00;7.95;;;4.10;99.90;;;;;;4996324;28;20741;-82
2023/02/14 00:24:44;;;;;;;13.18;7.72;;;4.10;99.90;;;;;;4996532;28;20489;-82
2023/02/14 00:27:09;;;;;;;13.90;7.13;;;3.90;99.90;;;;;;5001860;28;20323;-82
2023/02/14 00:29:35;;;;;;;13.15;7.90;;;3.90;99.90;;;;;;4991470;28;20068;-82
2023/02/14 00:32:00;;;;;;;13.75;8.15;;;3.90;99.90;;;;;;4994278;28;20044;-82
2023/02/14 00:34:26;;;;;;;11.88;7.32;;;3.90;99.90;;;;;;4999393;28;20124;-81
2023/02/14 00:36:52;;;;;;;11.32;7.30;;;3.80;99.90;;;;;;4976555;28;20085;-82
2023/02/14 00:39:17;;;;;;;12.70;7.35;;;3.80;99.90;;;;;;4978420;28;20049;-81
2023/02/14 00:41:43;;;;;;;10.10;7.30;;;3.70;99.90;;;;;;4990147;28;20057;-81
2023/02/14 00:44:09;;;;;;;11.95;6.97;;;3.70;99.90;;;;;;4989805;28;20479;-81
2023/02/14 00:46:34;;;;;;;16.02;7.80;;;3.70;99.90;;;;;;4991001;28;20855;-78
2023/02/14 00:49:00;;;;;;;12.52;7.07;;;3.50;99.90;;;;;;4993566;28;20034;-79
2023/02/14 00:51:26;;;;;;;12.32;7.25;;;3.60;99.90;;;;;;4990227;28;20886;-78
2023/02/14 00:53:51;;;;;;;15.43;8.90;;;3.70;99.90;;;;;;4989946;28;20029;-78
2023/02/14 00:56:17;;;;;;;17.17;8.35;;;3.70;99.90;;;;;;4989924;28;20978;-79
2023/02/14 00:58:43;;;;;;;15.98;8.18;;;3.70;99.90;;;;;;4987827;28;20387;-81
2023/02/14 01:01:09;;;;;;;11.25;7.50;;;3.80;99.90;;;;;;4989463;28;20412;-81
2023/02/14 01:03:34;;;;;;;12.25;7.50;;;3.70;99.90;;;;;;4993506;28;20034;-81
2023/02/14 01:06:00;;;;;;;9.52;5.93;;;3.70;99.90;;;;;;4994434;28;20031;-81
2023/02/14 01:08:26;;;;;;;11.93;5.97;;;3.90;99.90;;;;;;4979564;28;20124;-81
2023/02/14 01:10:51;;;;;;;9.00;5.57;;;4.10;99.90;;;;;;4976784;28;20429;-81
2023/02/14 01:13:17;;;;;;;8.82;6.60;;;4.30;99.90;;;;;;4992862;28;20030;-81
2023/02/14 01:15:48;;;;;;;10.30;6.28;;;4.40;99.90;;;;;;4993368;28;20037;-82
2023/02/14 01:18:14;;;;;;;9.55;6.07;;;4.30;99.90;;;;;;4991251;28;20392;-82
2023/02/14 01:20:39;;;;;;;9.40;6.13;;;4.40;99.90;;;;;;4990307;28;20030;-82
2023/02/14 01:23:05;;;;;;;11.63;7.10;;;4.30;99.90;;;;;;4996903;28;20412;-81
2023/02/14 01:25:31;;;;;;;9.65;6.47;;;4.10;99.90;;;;;;5010555;28;20497;-81
2023/02/14 01:27:56;;;;;;;12.25;7.35;;;4.10;99.90;;;;;;4991305;28;20037;-81
2023/02/14 01:30:22;;;;;;;12.25;7.07;;;4.00;99.90;;;;;;5010917;28;20504;-81
2023/02/14 01:32:48;;;;;;;11.63;7.60;;;3.90;99.90;;;;;;4996302;28;20428;-80
2023/02/14 01:35:13;;;;;;;12.15;7.82;;;3.90;99.90;;;;;;4991803;28;20037;-81
2023/02/14 01:37:39;;;;;;;11.60;7.50;;;3.90;99.90;;;;;;4996238;28;20030;-81
2023/02/14 01:40:07;;;;;;;13.77;8.23;;;3.80;99.90;;;;;;4990555;28;20034;-81
2023/02/14 01:42:33;;;;;;;16.35;8.13;;;3.80;99.90;;;;;;4978916;28;20088;-81
2023/02/14 01:45:13;;;;;;;12.98;7.95;;;3.70;99.90;;;;;;4994315;28;20485;-81
2023/02/14 01:47:40;;;;;;;10.63;7.55;;;3.70;99.90;;;;;;5010679;28;20494;-81
2023/02/14 01:50:21;;;;;;;12.85;7.72;;;3.70;99.90;;;;;;5007013;28;20034;-81
2023/02/14 01:52:53;;;;;;;13.27;7.00;;;3.80;99.90;;;;;;5007940;28;20042;-81
2023/02/14 01:55:23;;;;;;;14.48;7.38;;;4.00;99.90;;;;;;4993127;28;20037;-81
2023/02/14 01:58:11;;;;;;;8.55;5.72;;;4.00;99.90;;;;;;4997146;28;20042;-81
2023/02/14 02:00:55;;;;;;;13.43;7.75;;;3.90;99.90;;;;;;4984758;28;20041;-81
2023/02/14 02:03:21;;;;;;;13.20;7.35;;;4.00;99.90;;;;;;4983062;28;20026;-81
2023/02/14 02:05:50;;;;;;;13.57;7.93;;;3.80;99.90;;;;;;4994183;28;20103;-81
2023/02/14 02:08:16;;;;;;;16.45;8.25;;;3.60;99.90;;;;;;4977754;28;20041;-81
2023/02/14 02:10:41;;;;;;;14.98;8.65;;;3.60;99.90;;;;;;4994195;28;20038;-81
2023/02/14 02:13:07;;;;;;;17.25;9.60;;;3.60;99.90;;;;;;5009250;28;20125;-81
2023/02/14 02:16:11;;;;;;;18.35;9.77;;;3.50;99.90;;;;;;4991094;28;20035;-81
2023/02/14 02:18:41;;;;;;;25.75;11.45;;;3.50;99.90;;;;;;4977199;28;20501;-81
2023/02/14 02:21:36;;;;;;;20.63;11.07;;;3.50;99.90;;;;;;5007594;28;20026;-80
2023/02/14 02:24:20;;;;;;;22.02;11.77;;;3.60;99.90;;;;;;5022911;28;20042;-81
2023/02/14 02:27:09;;;;;;;19.15;10.82;;;3.50;99.90;;;;;;4993160;28;20088;-80
2023/02/14 02:30:06;;;;;;;20.08;11.20;;;3.40;99.90;;;;;;5008921;28;20033;-80
2023/02/14 02:33:09;;;;;;;15.55;9.68;;;3.40;99.90;;;;;;4992159;28;20113;-81
2023/02/14 02:35:40;;;;;;;17.85;9.98;;;3.40;99.90;;;;;;5009390;28;20513;-80
2023/02/14 02:38:28;;;;;;;17.48;11.02;;;3.40;99.90;;;;;;5008009;28;20030;-80
2023/02/14 02:41:17;;;;;;;19.75;10.90;;;3.30;99.90;;;;;;5012321;28;20045;-80
2023/02/14 02:43:44;;;;;;;14.10;8.52;;;3.50;99.90;;;;;;5011422;28;20375;-81
2023/02/14 02:49:08;;;;;;;16.85;9.60;;;3.40;99.90;;;;;;4995429;28;20095;-81
2023/02/14 02:54:39;;;;;;;21.25;10.95;;;3.20;99.90;;;;;;5008082;28;20320;-80
2023/02/14 02:57:06;;;;;;;20.55;10.93;;;3.00;99.90;;;;;;4998693;28;20034;-81
2023/02/14 02:59:35;;;;;;;19.58;10.50;;;3.00;99.90;;;;;;4991668;28;20381;-81
2023/02/14 03:02:10;;;;;;;18.85;10.93;;;2.90;99.90;;;;;;5012611;28;20084;-81
2023/02/14 03:04:51;;;;;;;19.00;10.20;;;2.90;99.90;;;;;;5011590;28;20022;-80
2023/02/14 03:07:35;;;;;;;19.40;10.90;;;2.90;99.90;;;;;;5018050;28;20044;-80
2023/02/14 03:10:17;;;;;;;21.30;12.27;;;3.00;99.90;;;;;;5004066;28;20377;-80
2023/02/14 03:12:52;;;;;;;23.73;11.43;;;3.00;99.90;;;;;;5013213;28;20029;-80
2023/02/14 03:15:26;;;;;;;23.02;11.63;;;3.00;99.90;;;;;;5031821;28;20167;-81
2023/02/14 03:17:54;;;;;;;18.73;11.80;;;2.90;99.90;;;;;;5013171;28;20041;-80
2023/02/14 03:20:23;;;;;;;22.52;11.93;;;2.90;99.90;;;;;;5019980;28;20435;-80
2023/02/14 03:22:57;;;;;;;21.13;10.77;;;2.90;99.90;;;;;;4998117;28;20029;-80
2023/02/14 03:25:31;;;;;;;18.88;8.70;;;2.90;99.90;;;;;;5013352;28;20040;-81
2023/02/14 03:28:18;;;;;;;19.30;11.15;;;2.90;99.90;;;;;;5031274;28;20030;-80
2023/02/14 03:31:05;;;;;;;20.30;10.85;;;3.10;99.90;;;;;;5040287;28;20030;-80
2023/02/14 03:33:49;;;;;;;17.10;9.95;;;2.90;99.90;;;;;;5029301;28;20756;-80
2023/02/14 03:36:20;;;;;;;17.75;10.05;;;2.80;99.90;;;;;;5029104;28;20119;-80
2023/02/14 03:38:54;;;;;;;19.38;10.50;;;2.70;99.90;;;;;;5014739;28;20559;-80
2023/02/14 03:41:25;;;;;;;16.10;10.10;;;2.70;99.90;;;;;;4992860;28;20104;-80
2023/02/14 03:43:52;;;;;;;20.65;11.27;;;2.70;99.90;;;;;;4995209;28;20129;-80
2023/02/14 03:46:38;;;;;;;18.77;10.85;;;2.70;99.90;;;;;;4996186;28;20116;-81
2023/02/14 03:49:05;;;;;;;20.98;9.02;;;2.70;99.90;;;;;;5026746;28;20436;-80
2023/02/14 03:51:33;;;;;;;21.35;10.75;;;2.70;99.90;;;;;;5009225;28;20540;-80
2023/02/14 03:53:58;;;;;;;19.60;11.45;;;2.70;99.90;;;;;;5028519;28;20389;-80
2023/02/14 03:56:36;;;;;;;15.90;10.57;;;2.90;99.90;;;;;;5001617;28;20041;-80
2023/02/14 03:59:22;;;;;;;20.45;11.77;;;2.80;99.90;;;;;;4981977;28;20517;-81
2023/02/14 04:02:05;;;;;;;;;;;2.70;99.90;;;;;;4976460;28;20053;-80
2023/02/14 04:04:34;;;;;;;19.65;10.95;;;2.70;99.90;;;;;;4995470;28;19913;-80
2023/02/14 04:07:07;;;;;;;21.52;11.02;;;2.70;99.90;;;;;;5007191;28;20036;-80
2023/02/14 04:09:33;;;;;;;17.15;10.15;;;2.90;99.90;;;;;;4991854;28;20489;-80
2023/02/14 04:11:58;;;;;;;20.35;11.48;;;2.90;99.90;;;;;;5012342;28;20095;-80
2023/02/14 04:14:28;;;;;;;20.35;11.55;;;2.90;99.90;;;;;;4990923;28;20062;-80
2023/02/14 04:19:37;;;;;;;22.30;12.20;;;2.90;99.90;;;;;;5006083;28;20509;-81
2023/02/14 04:22:03;;;;;;;22.92;12.30;;;2.80;99.90;;;;;;5007608;28;20026;-80
2023/02/14 04:24:28;;;;;;;29.95;18.45;;;2.80;99.90;;;;;;4990466;28;20030;-81
2023/02/14 04:27:08;;;;;;;21.98;13.57;;;2.80;99.90;;;;;;4989936;28;20050;-80
2023/02/14 04:29:43;;;;;;;19.70;11.70;;;2.70;99.90;;;;;;4995336;28;20045;-81
2023/02/14 04:32:11;;;;;;;21.08;11.13;;;2.70;99.90;;;;;;5005540;28;20033;-80
2023/02/14 04:34:36;;;;;;;19.70;11.50;;;2.70;99.90;;;;;;4990671;28;20033;-80
2023/02/14 04:37:03;;;;;;;22.48;11.30;;;2.60;99.90;;;;;;4992130;28;20562;-81
2023/02/14 04:39:28;;;;;;;17.67;11.65;;;2.60;99.90;;;;;;4991763;28;20041;-79
2023/02/14 04:41:54;;;;;;;23.65;12.43;;;2.60;99.90;;;;;;4998918;28;20813;-80
2023/02/14 04:44:19;;;;;;;21.58;12.50;;;2.60;99.90;;;;;;4974965;28;20116;-80
2023/02/14 04:46:45;;;;;;;22.27;12.10;;;2.60;99.90;;;;;;5011956;28;20531;-80
2023/02/14 04:49:10;;;;;;;21.52;12.68;;;2.60;99.90;;;;;;5006954;28;20506;-79
2023/02/14 04:51:36;;;;;;;20.83;12.32;;;2.70;99.90;;;;;;5005898;28;20548;-80
2023/02/14 04:54:01;;;;;;;26.20;13.18;;;2.60;99.90;;;;;;4974611;28;20022;-80
2023/02/14 04:56:27;;;;;;;21.70;12.48;;;2.50;99.90;;;;;;5009545;28;20426;-80
2023/02/14 04:58:53;;;;;;;21.50;12.65;;;2.50;99.90;;;;;;4991019;28;20132;-80
2023/02/14 05:01:19;;;;;;;20.77;12.85;;;2.50;99.90;;;;;;4992232;28;20030;-80
2023/02/14 05:03:44;;;;;;;22.38;12.63;;;2.50;99.90;;;;;;4978849;28;20038;-81
2023/02/14 05:06:10;;;;;;;21.70;11.93;;;2.50;99.90;;;;;;5006816;28;20030;-80
2023/02/14 05:08:35;;;;;;;24.20;12.48;;;2.50;99.90;;;;;;4991313;28;20037;-80
2023/02/14 05:11:01;;;;;;;21.02;13.05;;;2.60;99.90;;;;;;4992765;28;20517;-79
2023/02/14 05:13:27;;;;;;;22.55;13.18;;;2.50;99.90;;;;;;4992182;28;20040;-80
2023/02/14 05:15:53;;;;;;;19.20;11.55;;;2.50;99.90;;;;;;5006908;28;20026;-80
2023/02/14 05:18:19;;;;;;;21.38;11.70;;;2.50;99.90;;;;;;4996614;28;20052;-80
2023/02/14 05:20:44;;;;;;;21.70;13.25;;;2.50;99.90;;;;;;4974337;28;20497;-80
2023/02/14 05:23:12;;;;;;;17.42;9.23;;;2.50;99.90;;;;;;5003367;28;20042;-80
2023/02/14 05:25:39;;;;;;;22.65;12.13;;;2.70;99.90;;;;;;5007915;28;20118;-80
2023/02/14 05:28:06;;;;;;;14.10;7.70;;;2.70;99.90;;;;;;4975411;28;20038;-79
2023/02/14 05:30:31;;;;;;;20.60;11.70;;;2.70;99.90;;;;;;5006773;28;20448;-80
2023/02/14 05:32:57;;;;;;;15.38;9.13;;;2.80;99.90;;;;;;5007437;28;20034;-80
2023/02/14 05:35:22;;;;;;;18.83;10.18;;;2.90;99.90;;;;;;5006869;28;20038;-81
2023/02/14 05:37:48;;;;;;;17.13;10.45;;;3.00;99.90;;;;;;5005562;28;20088;-80
2023/02/14 05:40:15;;;;;;;25.60;14.13;;;2.90;99.90;;;;;;4990903;28;20029;-80
2023/02/14 05:42:41;;;;;;;30.65;14.52;;;2.70;99.90;;;;;;5007641;28;20098;-80
2023/02/14 05:45:06;;;;;;;29.50;15.77;;;2.50;99.90;;;;;;4990099;28;20525;-80
2023/02/14 05:47:32;;;;;;;24.90;14.48;;;2.50;99.90;;;;;;4989948;28;20030;-80
2023/02/14 05:49:57;;;;;;;25.25;14.07;;;2.40;99.90;;;;;;4997706;28;20026;-80
2023/02/14 05:52:23;;;;;;;28.90;15.07;;;2.40;99.90;;;;;;5009776;28;20034;-80
2023/02/14 05:54:49;;;;;;;32.97;15.63;;;2.60;99.90;;;;;;5008387;28;20555;-80
2023/02/14 05:57:14;;;;;;;33.08;16.15;;;2.40;99.90;;;;;;5009665;28;20052;-80
2023/02/14 05:59:40;;;;;;;33.15;17.90;;;2.30;99.90;;;;;;4996263;28;20064;-81
2023/02/14 06:02:06;;;;;;;28.92;15.77;;;2.50;99.90;;;;;;5013234;28;20109;-81
2023/02/14 06:04:31;;;;;;;33.08;17.30;;;2.40;99.90;;;;;;4994445;28;20034;-81
2023/02/14 06:06:57;;;;;;;31.35;16.00;;;2.50;99.90;;;;;;4996149;28;20046;-80
2023/02/14 06:09:22;;;;;;;29.85;16.00;;;2.30;99.90;;;;;;5009259;28;20038;-80
2023/02/14 06:11:48;;;;;;;25.02;14.32;;;2.30;99.90;;;;;;5010044;28;20065;-81
2023/02/14 06:14:14;;;;;;;29.83;14.73;;;2.20;99.90;;;;;;4992469;28;20088;-80
2023/02/14 06:16:40;;;;;;;31.83;16.35;;;2.10;99.90;;;;;;4995011;28;20884;-80
2023/02/14 06:19:05;;;;;;;33.20;16.80;;;2.10;99.90;;;;;;4992495;28;20052;-80
2023/02/14 06:21:31;;;;;;;37.22;16.88;;;2.10;99.90;;;;;;4994482;28;20026;-80
2023/02/14 06:23:57;;;;;;;35.47;17.83;;;2.20;99.90;;;;;;4988252;28;20045;-80
2023/02/14 06:26:26;;;;;;;33.72;18.90;;;2.10;99.90;;;;;;4969262;28;20033;-80
2023/02/14 06:28:53;;;;;;;35.53;18.90;;;2.10;99.90;;;;;;4977054;28;20034;-80
2023/02/14 06:31:19;;;;;;;37.90;19.27;;;2.10;99.90;;;;;;5008023;28;20466;-81
2023/02/14 06:33:54;;;;;;;35.13;18.80;;;2.10;99.90;;;;;;4992945;28;20121;-80
2023/02/14 06:36:20;;;;;;;47.92;20.20;;;2.10;99.90;;;;;;4993120;28;20516;-80
2023/02/14 06:38:47;;;;;;;35.28;18.13;;;2.10;99.90;;;;;;4994299;28;20030;-80
2023/02/14 06:41:13;;;;;;;36.08;18.35;;;2.10;99.90;;;;;;4991456;28;20048;-80
2023/02/14 06:43:39;;;;;;;43.28;19.98;;;2.10;99.90;;;;;;5008875;28;20054;-80
2023/02/14 06:46:05;;;;;;;41.05;19.83;;;2.10;99.90;;;;;;5005053;28;20070;-80
2023/02/14 06:48:30;;;;;;;36.35;19.40;;;2.10;99.90;;;;;;5010223;28;20445;-81
2023/02/14 06:50:56;;;;;;;47.15;22.55;;;2.10;99.90;;;;;;4978037;28;20042;-80
2023/02/14 06:53:21;;;;;;;45.22;21.63;;;2.20;99.90;;;;;;4993670;28;20038;-81
2023/02/14 06:55:47;;;;;;;43.75;22.13;;;2.20;99.90;;;;;;5008019;28;20461;-80
2023/02/14 06:58:13;;;;;;;49.63;22.42;;;2.20;99.90;;;;;;5008013;28;20041;-80
2023/02/14 07:00:38;;;;;;;47.53;21.67;;;2.20;99.90;;;;;;4993864;28;20087;-80
2023/02/14 07:03:05;;;;;;;46.83;23.02;;;2.10;99.90;;;;;;4991253;28;20037;-80
2023/02/14 07:05:31;;;;;;;45.13;22.05;;;2.10;99.90;;;;;;4989447;28;20398;-79
2023/02/14 07:07:57;;;;;;;43.47;21.05;;;2.20;99.90;;;;;;4991534;28;20030;-79
2023/02/14 07:10:22;;;;;;;44.83;21.58;;;2.20;99.90;;;;;;4998235;28;20040;-82
2023/02/14 07:12:48;;;;;;;54.35;23.42;;;2.10;99.90;;;;;;4995585;28;20066;-83
2023/02/14 07:15:13;;;;;;;52.13;25.52;;;2.20;99.90;;;;;;4987648;28;20037;-81
2023/02/14 07:17:39;;;;;;;50.72;23.65;;;2.30;99.90;;;;;;4992173;28;20516;-83
2023/02/14 07:20:06;;;;;;;50.50;24.23;;;2.40;99.90;;;;;;4990415;28;20030;-82
2023/02/14 07:22:32;;;;;;;43.33;22.70;;;2.50;99.90;;;;;;4994107;28;20044;-83
2023/02/14 07:24:57;;;;;;;44.13;21.88;;;2.40;99.90;;;;;;5007145;28;20124;-81
2023/02/14 07:27:23;;;;;;;51.92;25.08;;;2.40;99.90;;;;;;5008310;28;20176;-81
2023/02/14 07:29:48;;;;;;;44.30;20.10;;;2.40;99.90;;;;;;5008817;28;20490;-83
2023/02/14 07:32:14;;;;;;;52.28;21.90;;;2.40;99.90;;;;;;5008598;28;20558;-82
2023/02/14 07:34:40;;;;;;;54.33;23.67;;;2.50;99.90;;;;;;4991011;28;20398;-82
2023/02/14 07:37:05;;;;;;;53.85;23.05;;;2.50;99.90;;;;;;4991018;28;20383;-81
2023/02/14 07:39:31;;;;;;;52.72;24.40;;;2.50;99.90;;;;;;4991236;28;20073;-82
2023/02/14 07:41:56;;;;;;;58.78;27.30;;;2.50;99.90;;;;;;4990788;28;20037;-82
2023/02/14 07:44:22;;;;;;;58.10;25.30;;;2.50;99.90;;;;;;4976387;28;20483;-82
2023/02/14 07:46:47;;;;;;;53.85;24.90;;;2.60;99.90;;;;;;4989381;28;20437;-82
2023/02/14 07:49:13;;;;;;;57.13;24.13;;;2.90;99.90;;;;;;4990901;28;20129;-81
2023/02/14 07:51:38;;;;;;;55.70;25.20;;;3.00;99.90;;;;;;4988339;28;20034;-82
2023/02/14 07:54:04;;;;;;;61.03;25.05;;;3.00;99.90;;;;;;4998234;28;20088;-82
2023/02/14 07:56:29;;;;;;;57.30;24.88;;;3.10;99.90;;;;;;4986290;28;20025;-82
2023/02/14 07:58:55;;;;;;;51.22;23.10;;;3.30;99.90;;;;;;5008976;28;20512;-82
2023/02/14 08:01:20;;;;;;;36.92;19.20;;;3.40;99.90;;;;;;5005662;28;20482;-84
2023/02/14 08:03:48;;;;;;;41.45;21.20;;;3.60;99.90;;;;;;4997071;28;20394;-82
2023/02/14 08:06:15;;;;;;;36.38;18.73;;;3.90;99.90;;;;;;5011816;28;20492;-81
2023/02/14 08:08:40;;;;;;;28.13;15.20;;;4.20;99.90;;;;;;4992776;28;20486;-84
2023/02/14 08:11:06;;;;;;;31.83;15.90;;;4.30;99.90;;;;;;4991944;28;20033;-81
2023/02/14 08:13:31;;;;;;;37.95;19.90;;;4.40;99.90;;;;;;5007395;28;20041;-81
2023/02/14 08:16:03;;;;;;;34.22;16.70;;;4.50;99.90;;;;;;5005934;28;20580;-81
2023/02/14 08:18:29;;;;;;;22.63;12.30;;;4.50;99.90;;;;;;5005904;28;20448;-80
2023/02/14 08:20:55;;;;;;;38.42;17.30;;;4.90;99.90;;;;;;5005346;28;20030;-80
2023/02/14 08:23:20;;;;;;;33.13;17.40;;;5.10;99.90;;;;;;4991897;28;20524;-81
2023/02/14 08:25:50;;;;;;;33.03;17.13;;;5.10;99.90;;;;;;5008329;28;20093;-81
2023/02/14 08:28:15;;;;;;;26.42;14.30;;;5.10;99.90;;;;;;5005767;28;20186;-81
2023/02/14 08:30:42;;;;;;;32.63;16.50;;;5.30;99.90;;;;;;4989710;28;20058;-82
2023/02/14 08:33:07;;;;;;;32.22;18.05;;;5.50;99.90;;;;;;5006975;28;20104;-81
2023/02/14 08:35:33;;;;;;;31.33;17.35;;;5.50;99.90;;;;;;4990200;28;20061;-80
2023/02/14 08:37:59;;;;;;;31.63;17.38;;;5.80;99.90;;;;;;4987499;28;20030;-81
2023/02/14 08:40:24;;;;;;;31.30;16.40;;;6.00;99.90;;;;;;4994027;28;20436;-81
2023/02/14 08:42:50;;;;;;;26.88;14.55;;;6.00;99.90;;;;;;4989977;28;20540;-82
2023/02/14 08:45:15;;;;;;;22.38;12.02;;;6.30;99.90;;;;;;4990493;28;20038;-82
2023/02/14 08:47:41;;;;;;;33.05;17.63;;;6.50;99.90;;;;;;4991528;28;20061;-82
2023/02/14 08:50:09;;;;;;;31.92;16.98;;;6.50;99.90;;;;;;4990280;28;20042;-81
2023/02/14 08:52:34;;;;;;;27.73;15.90;;;6.70;99.90;;;;;;5008004;28;20030;-81
2023/02/14 08:55:01;;;;;;;21.65;12.10;;;6.80;99.90;;;;;;5006505;28;20092;-81
2023/02/14 08:57:27;;;;;;;25.23;14.05;;;6.90;99.90;;;;;;4989148;28;20469;-81
2023/02/14 08:59:53;;;;;;;24.13;13.23;;;7.10;99.90;;;;;;4974934;28;20060;-81
2023/02/14 09:02:18;;;;;;;29.95;13.15;;;7.40;99.90;;;;;;4974204;28;20073;-80
2023/02/14 09:04:44;;;;;;;25.55;13.55;;;7.50;99.90;;;;;;4989228;28;20022;-81
2023/02/14 09:07:12;;;;;;;24.25;13.05;;;7.60;99.90;;;;;;5007651;28;20048;-80
2023/02/14 09:09:38;;;;;;;21.58;11.35;;;7.80;99.90;;;;;;4989926;28;20030;-80
2023/02/14 09:12:05;;;;;;;24.10;13.10;;;7.90;99.90;;;;;;5025534;28;20028;-80
2023/02/14 09:14:44;;;;;;;24.33;12.40;;;8.10;99.90;;;;;;5024658;28;20481;-80
2023/02/14 09:17:10;;;;;;;23.75;12.80;;;8.30;99.90;;;;;;4999593;28;20834;-81
2023/02/14 09:19:36;;;;;;;17.92;10.07;;;8.30;99.90;;;;;;4999869;28;20033;-81
2023/02/14 09:22:03;;;;;;;19.10;9.90;;;8.50;99.90;;;;;;5001043;28;20030;-80
2023/02/14 09:24:29;;;;;;;18.98;9.75;;;8.80;99.90;;;;;;5001547;28;20033;-81
2023/02/14 09:26:56;;;;;;;20.02;9.50;;;8.90;99.90;;;;;;4990040;28;20036;-81
2023/02/14 09:29:26;;;;;;;17.42;9.23;;;8.90;99.90;;;;;;4993234;28;20029;-80
2023/02/14 09:31:55;;;;;;;17.42;9.52;;;9.30;99.90;;;;;;4996786;28;20577;-81
2023/02/14 09:34:21;;;;;;;17.08;9.13;;;9.70;99.90;;;;;;5000522;28;20046;-81
2023/02/14 09:36:48;;;;;;;17.05;9.27;;;10.00;99.90;;;;;;4989913;28;20034;-81
2023/02/14 09:39:13;;;;;;;16.83;9.07;;;9.60;99.90;;;;;;5007536;28;20144;-81
2023/02/14 09:42:03;;;;;;;18.25;10.70;;;10.10;99.90;;;;;;4987973;28;20129;-81
2023/02/14 09:44:50;;;;;;;15.95;9.77;;;10.20;99.90;;;;;;5010163;28;20032;-81
2023/02/14 09:47:39;;;;;;;22.17;10.73;;;10.40;99.90;;;;;;5029000;28;20037;-82
2023/02/14 09:50:07;;;;;;;16.48;8.18;;;10.40;99.90;;;;;;5003012;28;20405;-81
2023/02/14 09:52:32;;;;;;;17.40;10.57;;;10.40;99.90;;;;;;5013870;28;20030;-81
2023/02/14 09:55:00;;;;;;;17.45;9.43;;;10.50;99.90;;;;;;5019305;28;20045;-81
2023/02/14 09:58:02;;;;;;;17.65;9.90;;;10.60;99.90;;;;;;5007529;28;20040;-81
2023/02/14 10:00:36;;;;;;;18.90;11.00;;;10.80;99.90;;;;;;5008027;28;20125;-81
2023/02/14 10:03:19;;;;;;;19.05;9.95;;;10.80;99.90;;;;;;5016264;28;20605;-81
2023/02/14 10:06:19;;;;;;;13.20;8.73;;;11.40;99.90;;;;;;5017697;28;20034;-81
2023/02/14 10:09:06;;;;;;;19.30;8.85;;;11.40;99.90;;;;;;5015445;28;20315;-81
2023/02/14 10:11:32;;;;;;;17.20;9.70;;;11.40;99.90;;;;;;5045777;28;20038;-81
2023/02/14 10:14:09;;;;;;;22.48;10.98;;;11.60;99.90;;;;;;4997139;28;20048;-81
2023/02/14 10:16:49;;;;;;;17.15;10.07;;;11.60;99.90;;;;;;5012304;28;20026;-81
2023/02/14 10:19:35;;;;;;;16.13;9.98;;;11.80;99.90;;;;;;5016593;28;20488;-81
2023/02/14 10:22:09;;;;;;;14.55;9.07;;;11.80;99.90;;;;;;5034679;28;20035;-81
2023/02/14 10:24:50;;;;;;;16.52;9.75;;;12.30;99.90;;;;;;4999210;28;20366;-81
2023/02/14 10:27:43;;;;;;;17.98;9.20;;;12.40;99.90;;;;;;5013598;28;20091;-82
2023/02/14 10:30:15;;;;;;;16.70;11.60;;;12.40;99.90;;;;;;5001633;28;20104;-82
2023/02/14 10:32:48;;;;;;;16.67;10.48;;;12.60;99.90;;;;;;5026194;28;20037;-82
2023/02/14 10:35:46;;;;;;;20.15;9.50;;;12.50;99.90;;;;;;5030133;28;20480;-81
2023/02/14 10:38:29;;;;;;;14.70;9.65;;;12.90;99.90;;;;;;5030399;28;20029;-82
2023/02/14 10:41:13;;;;;;;14.05;8.77;;;12.80;99.90;;;;;;5031287;28;20034;-82
2023/02/14 10:43:57;;;;;;;18.70;10.10;;;13.20;99.90;;;;;;5021557;28;20084;-82
2023/02/14 10:46:38;;;;;;;16.67;8.80;;;13.30;99.90;;;;;;5030491;28;20034;-82
2023/02/14 10:49:25;;;;;;;12.75;8.05;;;13.30;99.90;;;;;;5030815;28;20167;-82
2023/02/14 10:51:55;;;;;;;;;;;13.80;99.90;;;;;;5031974;28;20025;-82
2023/02/14 10:54:25;;;;;;;14.80;9.32;;;13.60;99.90;;;;;;5029843;28;20335;-82
2023/02/14 10:57:02;;;;;;;15.38;9.68;;;13.60;99.90;;;;;;5012539;28;20032;-82
2023/02/14 10:59:49;;;;;;;12.68;8.43;;;14.00;99.90;;;;;;5001303;28;20037;-82
2023/02/14 11:02:15;;;;;;;15.88;9.05;;;14.40;99.90;;;;;;5011967;28;20044;-82
2023/02/14 11:04:41;;;;;;;10.45;7.07;;;14.50;99.90;;;;;;5013434;28;20053;-82
2023/02/14 11:07:17;;;;;;;13.27;7.88;;;14.40;99.90;;;;;;5011809;28;20049;-83
2023/02/14 11:09:43;;;;;;;13.43;8.25;;;14.60;99.90;;;;;;5027979;28;20051;-83
2023/02/14 11:12:08;;;;;;;12.88;7.93;;;14.50;99.90;;;;;;5013835;28;20120;-83
2023/02/14 11:14:35;;;;;;;11.50;7.43;;;15.10;99.90;;;;;;5013365;28;20477;-82
2023/02/14 11:17:26;;;;;;;12.15;7.10;;;15.40;99.90;;;;;;5012970;28;20489;-82
2023/02/14 11:20:01;;;;;;;11.40;7.38;;;15.50;99.90;;;;;;4990548;28;20065;-83
2023/02/14 11:22:30;;;;;;;15.85;9.30;;;15.70;99.90;;;;;;5012157;28;20037;-83
2023/02/14 11:25:03;;;;;;;8.95;6.07;;;15.30;99.90;;;;;;4994406;28;20037;-83
2023/02/14 11:27:29;;;;;;;9.30;5.70;;;15.60;99.90;;;;;;4999774;28;20033;-83
2023/02/14 11:29:54;;;;;;;11.50;6.85;;;15.70;99.90;;;;;;5012414;28;20037;-83
2023/02/14 11:32:24;;;;;;;12.60;7.18;;;15.60;99.90;;;;;;5015672;28;20025;-83
2023/02/14 11:35:04;;;;;;;10.75;6.95;;;16.10;99.90;;;;;;5011239;28;20496;-83
2023/02/14 11:37:32;;;;;;;12.07;7.68;;;16.00;99.90;;;;;;5013071;28;20041;-83
2023/02/14 11:39:59;;;;;;;10.23;6.45;;;16.30;99.90;;;;;;5007308;28;20481;-82
2023/02/14 11:42:41;;;;;;;8.18;6.13;;;16.60;99.90;;;;;;4996761;28;20044;-83
2023/02/14 11:45:25;;;;;;;11.20;6.78;;;16.70;99.90;;;;;;4998923;28;20029;-83
2023/02/14 11:48:08;;;;;;;11.10;6.90;;;16.60;99.90;;;;;;5026664;28;20424;-83
2023/02/14 11:50:34;;;;;;;10.15;6.93;;;17.30;99.90;;;;;;5014242;28;20037;-83
2023/02/14 11:53:00;;;;;;;20.23;8.13;;;17.50;99.90;;;;;;5011224;28;20033;-83
2023/02/14 11:55:32;;;;;;;8.50;6.05;;;17.30;99.90;;;;;;5027854;28;20440;-83
2023/02/14 11:57:57;;;;;;;9.43;6.07;;;17.00;99.90;;;;;;5027243;28;20057;-83
2023/02/14 12:00:25;;;;;;;9.32;5.97;;;17.50;99.90;;;;;;5017292;28;20446;-83
2023/02/14 12:02:51;;;;;;;9.90;6.22;;;17.30;99.90;;;;;;5013915;28;20087;-83
2023/02/14 12:05:32;;;;;;;11.90;7.43;;;17.10;99.90;;;;;;4995778;28;20029;-83
2023/02/14 12:08:05;;;;;;;12.50;7.20;;;17.30;99.90;;;;;;5014343;28;20505;-83
2023/02/14 12:10:31;;;;;;;11.68;6.28;;;17.50;99.90;;;;;;5010592;28;20119;-83
2023/02/14 12:13:07;;;;;;;9.40;6.25;;;17.40;99.90;;;;;;5010053;28;20125;-82
2023/02/14 12:15:41;;;;;;;8.80;5.50;;;17.40;99.90;;;;;;5030526;28;20036;-83
2023/02/14 12:18:20;;;;;;;9.25;5.18;;;17.80;99.90;;;;;;5032750;28;20029;-83
2023/02/14 12:21:11;;;;;;;11.98;6.85;;;18.00;99.90;;;;;;5027051;28;20378;-83
2023/02/14 12:24:04;;;;;;;9.13;5.93;;;17.90;99.90;;;;;;5014697;28;20032;-84
2023/02/14 12:26:49;;;;;;;11.48;5.90;;;18.10;99.90;;;;;;5030232;28;20067;-83
2023/02/14 12:29:34;;;;;;;11.90;7.35;;;18.50;99.90;;;;;;5014927;28;20040;-83
2023/02/14 12:32:01;;;;;;;8.10;5.75;;;17.60;99.90;;;;;;5009526;28;20535;-83
2023/02/14 12:34:27;;;;;;;6.93;4.72;;;17.70;99.90;;;;;;5011692;28;20129;-83
2023/02/14 12:37:04;;;;;;;9.95;5.78;;;18.30;99.90;;;;;;4986914;28;20118;-83
2023/02/14 12:40:01;;;;;;;8.50;5.95;;;18.80;99.90;;;;;;5027716;28;20033;-83
2023/02/14 12:42:33;;;;;;;;;;;19.40;99.20;;;;;;5002541;28;20956;-83
2023/02/14 12:45:30;;;;;;;9.50;6.00;;;19.20;99.90;;;;;;5022414;28;19940;-83
2023/02/14 12:48:00;;;;;;;9.48;6.60;;;18.50;99.90;;;;;;5012839;28;20034;-83
2023/02/14 12:50:51;;;;;;;11.05;6.60;;;19.20;99.90;;;;;;5012757;28;20508;-83
2023/02/14 12:53:29;;;;;;;11.45;7.63;;;19.60;99.10;;;;;;5002750;28;20528;-82
2023/02/14 12:56:00;;;;;;;8.80;6.05;;;19.10;99.90;;;;;;4990840;28;20034;-83
2023/02/14 12:58:30;;;;;;;12.93;8.10;;;18.80;99.90;;;;;;5017515;28;20091;-84
2023/02/14 13:01:11;;;;;;;8.30;5.72;;;18.40;99.90;;;;;;4323148;28;9999676;-83
2023/02/14 13:04:20;;;;;;;6.97;4.95;;;18.90;99.90;;;;;;5039897;28;20033;-84
2023/02/14 13:06:50;;;;;;;8.60;6.10;;;18.80;99.90;;;;;;5008250;28;20029;-83
2023/02/14 13:09:36;;;;;;;12.98;7.35;;;19.30;99.90;;;;;;4997426;28;20045;-82